createdAt,value
2023-03-10T00:01:32.729Z,4.39
2023-03-10T00:04:01.515Z,4.39
2023-03-10T00:06:32.976Z,4.40
2023-03-10T00:09:01.313Z,4.39
2023-03-10T00:11:29.784Z,4.37
2023-03-10T00:13:58.961Z,4.36
2023-03-10T00:16:33.683Z,4.36
2023-03-10T00:19:04.040Z,4.34
2023-03-10T00:21:32.641Z,4.31
2023-03-10T00:24:05.581Z,4.28
2023-03-10T00:26:34.591Z,4.23
2023-03-10T00:29:02.695Z,4.22
2023-03-10T00:31:31.830Z,4.21
2023-03-10T00:34:00.744Z,4.19
2023-03-10T00:36:31.057Z,4.20
2023-03-10T00:39:02.505Z,4.20
2023-03-10T00:41:35.801Z,4.18
2023-03-10T00:44:03.885Z,4.17
2023-03-10T00:46:36.535Z,4.15
2023-03-10T00:49:06.826Z,4.13
2023-03-10T00:51:35.248Z,4.14
2023-03-10T00:54:06.297Z,4.11
2023-03-10T00:56:35.825Z,4.07
2023-03-10T00:59:07.475Z,4.05
2023-03-10T01:01:39.829Z,4.02
2023-03-10T01:04:14.389Z,4.01
2023-03-10T01:06:44.721Z,4.00
2023-03-10T01:09:14.523Z,3.99
2023-03-10T01:11:42.953Z,3.96
2023-03-10T01:14:13.382Z,3.91
2023-03-10T01:16:41.611Z,3.83
2023-03-10T01:19:09.933Z,3.78
2023-03-10T01:21:38.513Z,3.78
2023-03-10T01:24:06.996Z,3.76
2023-03-10T01:26:35.788Z,3.76
2023-03-10T01:29:05.195Z,3.72
2023-03-10T01:31:33.819Z,3.64
2023-03-10T01:34:03.391Z,3.63
2023-03-10T01:36:31.469Z,3.62
2023-03-10T01:39:00.639Z,3.58
2023-03-10T01:41:29.361Z,3.51
2023-03-10T01:43:57.886Z,3.46
2023-03-10T01:46:39.920Z,3.45
2023-03-10T01:49:27.171Z,3.46
2023-03-10T01:51:59.114Z,3.46
2023-03-10T01:54:46.642Z,3.45
2023-03-10T01:57:15.311Z,3.44
2023-03-10T01:59:43.896Z,3.44
2023-03-10T02:02:12.348Z,3.44
2023-03-10T02:04:43.721Z,3.39
2023-03-10T02:07:13.427Z,3.21
2023-03-10T02:09:44.413Z,3.11
2023-03-10T02:12:12.993Z,3.10
2023-03-10T02:14:43.252Z,3.10
2023-03-10T02:17:17.302Z,3.11
2023-03-10T02:20:11.127Z,3.09
2023-03-10T02:22:40.507Z,2.98
2023-03-10T02:25:13.986Z,2.93
2023-03-10T02:27:42.295Z,2.93
2023-03-10T02:30:24.929Z,2.95
2023-03-10T02:32:58.600Z,3.01
2023-03-10T02:35:28.501Z,3.04
2023-03-10T02:38:00.295Z,3.04
2023-03-10T02:40:34.028Z,3.05
2023-03-10T02:43:13.227Z,3.04
2023-03-10T02:45:43.290Z,3.03
2023-03-10T02:48:13.481Z,3.03
2023-03-10T02:50:43.172Z,3.04
2023-03-10T02:53:13.877Z,3.04
2023-03-10T02:55:41.993Z,3.05
2023-03-10T02:58:10.884Z,3.06
2023-03-10T03:00:41.037Z,3.07
2023-03-10T03:03:09.797Z,3.08
2023-03-10T03:05:38.557Z,3.07
2023-03-10T03:08:13.084Z,3.03
2023-03-10T03:10:42.925Z,3.02
2023-03-10T03:13:11.762Z,3.02
2023-03-10T03:15:40.392Z,3.00
2023-03-10T03:18:11.382Z,2.96
2023-03-10T03:20:41.247Z,2.93
2023-03-10T03:23:12.498Z,2.90
2023-03-10T03:25:41.578Z,2.85
2023-03-10T03:28:11.125Z,2.80
2023-03-10T03:30:40.521Z,2.74
2023-03-10T03:33:08.736Z,2.72
2023-03-10T03:35:38.268Z,2.71
2023-03-10T03:38:07.368Z,2.70
2023-03-10T03:40:37.482Z,2.70
2023-03-10T03:43:06.784Z,2.68
2023-03-10T03:45:38.466Z,2.68
2023-03-10T03:48:06.565Z,2.67
2023-03-10T03:50:35.894Z,2.67
2023-03-10T03:53:09.087Z,2.63
2023-03-10T03:55:37.380Z,2.60
2023-03-10T03:58:08.850Z,2.57
2023-03-10T04:00:40.193Z,2.53
2023-03-10T04:03:09.608Z,2.52
2023-03-10T04:05:38.772Z,2.52
2023-03-10T04:08:08.061Z,2.51
2023-03-10T04:10:36.484Z,2.49
2023-03-10T04:13:05.035Z,2.49
2023-03-10T04:15:33.604Z,2.48
2023-03-10T04:18:02.132Z,2.45
2023-03-10T04:20:30.812Z,2.47
2023-03-10T04:23:01.007Z,2.47
2023-03-10T04:25:33.729Z,2.48
2023-03-10T04:28:02.537Z,2.49
2023-03-10T04:30:31.073Z,2.48
2023-03-10T04:33:04.879Z,2.48
2023-03-10T04:35:35.301Z,2.49
2023-03-10T04:38:04.173Z,2.52
2023-03-10T04:40:32.621Z,2.49
2023-03-10T04:43:01.490Z,2.49
2023-03-10T04:45:30.587Z,2.54
2023-03-10T04:47:59.361Z,2.60
2023-03-10T04:50:27.437Z,2.59
2023-03-10T04:52:56.473Z,2.62
2023-03-10T04:55:27.307Z,2.69
2023-03-10T04:57:55.659Z,2.74
2023-03-10T05:00:24.184Z,2.78
2023-03-10T05:02:54.118Z,2.84
2023-03-10T05:05:22.436Z,2.85
2023-03-10T05:07:50.678Z,2.86
2023-03-10T05:10:20.496Z,2.80
2023-03-10T05:12:49.569Z,2.70
2023-03-10T05:15:17.931Z,2.66
2023-03-10T05:17:49.977Z,2.66
2023-03-10T05:20:19.404Z,2.70
2023-03-10T05:22:52.007Z,2.74
2023-03-10T05:25:21.463Z,2.75
2023-03-10T05:27:49.745Z,2.74
2023-03-10T05:30:18.500Z,2.72
2023-03-10T05:32:48.604Z,2.75
2023-03-10T05:35:18.374Z,2.78
2023-03-10T05:37:47.200Z,2.83
2023-03-10T05:40:23.573Z,2.82
2023-03-10T05:42:53.155Z,2.83
2023-03-10T05:45:22.089Z,2.87
2023-03-10T05:47:52.238Z,2.92
2023-03-10T05:50:20.635Z,2.99
2023-03-10T05:52:55.623Z,3.06
2023-03-10T05:55:25.251Z,3.15
2023-03-10T05:57:54.297Z,3.25
2023-03-10T06:00:24.541Z,3.36
2023-03-10T06:02:58.249Z,3.43
2023-03-10T06:05:28.146Z,3.48
2023-03-10T06:07:57.028Z,3.54
2023-03-10T06:10:25.078Z,3.52
2023-03-10T06:12:56.597Z,3.51
2023-03-10T06:15:25.060Z,3.54
2023-03-10T06:17:53.140Z,3.53
2023-03-10T06:20:21.384Z,3.62
2023-03-10T06:22:52.486Z,3.81
2023-03-10T06:25:23.232Z,3.99
2023-03-10T06:27:52.066Z,4.14
2023-03-10T06:30:21.020Z,4.25
2023-03-10T06:32:49.147Z,4.32
2023-03-10T06:35:18.001Z,4.36
2023-03-10T06:37:46.331Z,4.36
2023-03-10T06:40:14.503Z,4.37
2023-03-10T06:42:43.380Z,4.37
2023-03-10T06:45:15.922Z,4.33
2023-03-10T06:47:45.240Z,4.28
2023-03-10T06:50:14.393Z,4.26
2023-03-10T06:52:45.966Z,4.25
2023-03-10T06:55:14.790Z,4.28
2023-03-10T06:57:42.930Z,4.31
2023-03-10T07:00:15.596Z,4.21
2023-03-10T07:02:44.237Z,4.14
2023-03-10T07:05:13.826Z,4.04
2023-03-10T07:07:42.205Z,3.93
2023-03-10T07:10:17.008Z,3.96
2023-03-10T07:12:45.967Z,3.99
2023-03-10T07:15:16.340Z,3.92
2023-03-10T07:17:49.383Z,3.89
2023-03-10T07:20:18.595Z,3.93
2023-03-10T07:22:48.133Z,3.98
2023-03-10T07:25:16.488Z,4.03
2023-03-10T07:27:45.094Z,4.08
2023-03-10T07:30:13.337Z,4.10
2023-03-10T07:32:43.463Z,4.12
2023-03-10T07:35:12.027Z,4.10
2023-03-10T07:37:41.095Z,4.15
2023-03-10T07:40:11.007Z,4.19
2023-03-10T07:42:39.106Z,4.22
2023-03-10T07:45:07.557Z,4.25
2023-03-10T07:47:35.758Z,4.29
2023-03-10T07:50:05.368Z,4.31
2023-03-10T07:52:35.381Z,4.28
2023-03-10T07:55:08.930Z,4.18
2023-03-10T07:57:37.101Z,4.18
2023-03-10T08:00:09.173Z,4.20
2023-03-10T08:02:44.827Z,4.22
2023-03-10T08:05:16.057Z,4.23
2023-03-10T08:07:55.364Z,4.18
2023-03-10T08:10:28.693Z,4.13
2023-03-10T08:13:00.947Z,4.15
2023-03-10T08:15:40.126Z,4.20
2023-03-10T08:18:15.513Z,4.23
2023-03-10T08:23:38.012Z,4.39
2023-03-10T08:26:09.807Z,4.44
2023-03-10T08:28:39.058Z,4.44
2023-03-10T08:31:09.572Z,4.38
2023-03-10T08:33:39.089Z,4.29
2023-03-10T08:36:15.631Z,4.22
2023-03-10T08:38:44.367Z,4.24
2023-03-10T08:41:21.205Z,4.28
2023-03-10T08:43:50.605Z,4.29
2023-03-10T08:46:19.850Z,4.31
2023-03-10T08:48:48.435Z,4.29
2023-03-10T08:51:16.933Z,4.42
2023-03-10T08:53:47.124Z,4.68
2023-03-10T08:56:16.071Z,4.89
2023-03-10T08:58:44.677Z,4.93
2023-03-10T09:01:14.121Z,4.89
2023-03-10T09:03:43.381Z,4.80
2023-03-10T09:06:11.668Z,4.70
2023-03-10T09:08:44.052Z,4.54
2023-03-10T09:11:17.466Z,4.41
2023-03-10T09:13:46.491Z,4.33
2023-03-10T09:16:19.463Z,4.39
2023-03-10T09:18:49.003Z,4.37
2023-03-10T09:21:18.061Z,4.32
2023-03-10T09:23:47.748Z,4.35
2023-03-10T09:26:16.455Z,4.41
2023-03-10T09:28:51.166Z,4.47
2023-03-10T09:31:26.515Z,4.57
2023-03-10T09:34:02.200Z,4.67
2023-03-10T09:36:32.740Z,4.96
2023-03-10T09:39:04.264Z,5.34
2023-03-10T09:41:44.590Z,5.61
2023-03-10T09:44:39.976Z,5.65
2023-03-10T09:47:27.310Z,5.78
2023-03-10T09:50:02.117Z,5.79
2023-03-10T09:52:34.312Z,5.90
2023-03-10T09:55:21.376Z,5.99
2023-03-10T09:57:54.644Z,6.09
2023-03-10T10:00:30.932Z,6.09
2023-03-10T10:03:19.959Z,5.90
2023-03-10T10:05:53.668Z,5.56
2023-03-10T10:08:28.900Z,5.32
2023-03-10T10:10:58.140Z,5.15
2023-03-10T10:13:30.739Z,5.03
2023-03-10T10:16:24.445Z,4.93
2023-03-10T10:19:17.510Z,4.96
2023-03-10T10:21:58.433Z,4.97
2023-03-10T10:24:26.648Z,5.01
2023-03-10T10:26:56.086Z,5.14
2023-03-10T10:29:27.112Z,5.22
2023-03-10T10:32:12.504Z,5.35
2023-03-10T10:34:46.112Z,5.57
2023-03-10T10:37:20.675Z,5.61
2023-03-10T10:39:51.892Z,5.59
2023-03-10T10:42:32.826Z,5.48
2023-03-10T10:45:06.406Z,5.42
2023-03-10T10:47:50.093Z,5.39
2023-03-10T10:50:24.303Z,5.47
2023-03-10T10:53:13.698Z,5.57
2023-03-10T10:55:43.025Z,5.58
2023-03-10T10:58:28.576Z,5.56
2023-03-10T11:01:05.471Z,5.42
2023-03-10T11:03:38.352Z,5.27
2023-03-10T11:06:19.376Z,5.22
2023-03-10T11:08:52.915Z,5.26
2023-03-10T11:11:29.718Z,5.36
2023-03-10T11:14:11.973Z,5.52
2023-03-10T11:16:55.481Z,5.61
2023-03-10T11:19:57.619Z,5.74
2023-03-10T11:22:45.326Z,5.85
2023-03-10T11:25:44.786Z,5.95
2023-03-10T11:28:31.154Z,6.01
2023-03-10T11:31:20.451Z,5.95
2023-03-10T11:34:19.613Z,5.90
2023-03-10T11:37:00.033Z,5.90
2023-03-10T11:39:41.843Z,5.93
2023-03-10T11:42:37.433Z,5.91
2023-03-10T11:45:25.200Z,5.89
2023-03-10T11:48:05.880Z,5.88
2023-03-10T11:50:55.119Z,5.86
2023-03-10T11:53:32.221Z,5.85
2023-03-10T11:56:01.188Z,5.83
2023-03-10T11:58:48.922Z,5.78
2023-03-10T12:01:42.489Z,5.81
2023-03-10T12:04:33.124Z,5.84
2023-03-10T12:07:32.778Z,5.92
2023-03-10T12:10:15.482Z,6.00
2023-03-10T12:12:48.076Z,6.05
2023-03-10T12:15:16.149Z,6.11
2023-03-10T12:17:46.150Z,6.16
2023-03-10T12:20:14.180Z,6.21
2023-03-10T12:22:52.110Z,6.28
2023-03-10T12:25:30.316Z,6.37
2023-03-10T12:28:24.888Z,6.39
2023-03-10T12:31:00.378Z,6.37
2023-03-10T12:33:37.501Z,6.38
2023-03-10T12:36:32.868Z,6.41
2023-03-10T12:39:29.181Z,6.39
2023-03-10T12:42:29.168Z,6.38
2023-03-10T12:45:21.984Z,6.36
2023-03-10T12:48:04.507Z,6.42
2023-03-10T12:50:35.181Z,6.57
2023-03-10T12:53:13.225Z,6.65
2023-03-10T12:55:44.307Z,6.68
2023-03-10T12:58:17.293Z,6.69
2023-03-10T13:01:01.275Z,6.73
2023-03-10T13:03:47.713Z,6.83
2023-03-10T13:06:30.446Z,6.91
2023-03-10T13:09:29.647Z,6.95
2023-03-10T13:12:00.932Z,6.94
2023-03-10T13:14:39.738Z,6.86
2023-03-10T13:17:18.831Z,6.72
2023-03-10T13:19:56.424Z,6.64
2023-03-10T13:22:27.756Z,6.61
2023-03-10T13:25:02.785Z,6.58
2023-03-10T13:27:33.707Z,6.52
2023-03-10T13:30:20.291Z,6.45
2023-03-10T13:33:01.521Z,6.44
2023-03-10T13:35:37.007Z,6.42
2023-03-10T13:38:06.882Z,6.36
2023-03-10T13:40:44.041Z,6.33
2023-03-10T13:43:51.515Z,6.32
2023-03-10T13:46:28.152Z,6.29
2023-03-10T13:49:07.636Z,6.25
2023-03-10T13:51:37.157Z,6.22
2023-03-10T13:54:22.021Z,6.17
2023-03-10T13:56:54.998Z,6.15
2023-03-10T13:59:31.581Z,6.16
2023-03-10T14:02:00.820Z,6.16
2023-03-10T14:04:58.634Z,6.16
2023-03-10T14:07:28.986Z,6.18
2023-03-10T14:10:08.135Z,6.22
2023-03-10T14:12:50.318Z,6.24
2023-03-10T14:15:30.545Z,6.24
2023-03-10T14:18:08.992Z,6.24
2023-03-10T14:20:42.278Z,6.24
2023-03-10T14:23:20.215Z,6.23
2023-03-10T14:25:57.401Z,6.18
2023-03-10T14:28:27.930Z,6.13
2023-03-10T14:30:56.038Z,6.09
2023-03-10T14:33:24.579Z,6.06
2023-03-10T14:35:53.060Z,6.03
2023-03-10T14:38:22.224Z,6.01
2023-03-10T14:40:54.453Z,5.98
2023-03-10T14:43:26.756Z,5.96
2023-03-10T14:46:00.419Z,5.94
2023-03-10T14:48:31.185Z,5.93
2023-03-10T14:50:59.427Z,5.93
2023-03-10T14:53:28.106Z,5.93
2023-03-10T14:55:57.024Z,5.90
2023-03-10T14:58:35.462Z,5.87
2023-03-10T15:01:03.594Z,5.86
2023-03-10T15:03:32.191Z,5.85
2023-03-10T15:06:00.450Z,5.84
2023-03-10T15:08:37.353Z,5.83
2023-03-10T15:11:05.881Z,5.82
2023-03-10T15:13:35.389Z,5.78
2023-03-10T15:16:08.035Z,5.75
2023-03-10T15:18:37.023Z,5.74
2023-03-10T15:21:05.361Z,5.69
2023-03-10T15:23:34.902Z,5.67
2023-03-10T15:26:09.859Z,5.65
2023-03-10T15:28:38.286Z,5.63
2023-03-10T15:31:06.912Z,5.62
2023-03-10T15:33:35.575Z,5.60
2023-03-10T15:36:07.021Z,5.58
2023-03-10T15:38:35.840Z,5.57
2023-03-10T15:41:05.835Z,5.55
2023-03-10T15:43:37.054Z,5.54
2023-03-10T15:46:09.712Z,5.52
2023-03-10T15:48:39.948Z,5.50
2023-03-10T15:51:10.217Z,5.48
2023-03-10T15:53:38.308Z,5.47
2023-03-10T15:56:07.916Z,5.46
2023-03-10T15:58:36.128Z,5.44
2023-03-10T16:01:15.398Z,5.44
2023-03-10T16:03:44.013Z,5.43
2023-03-10T16:06:12.821Z,5.43
2023-03-10T16:08:44.604Z,5.42
2023-03-10T16:11:18.156Z,5.40
2023-03-10T16:13:46.926Z,5.39
2023-03-10T16:16:18.580Z,5.36
2023-03-10T16:18:47.173Z,5.34
2023-03-10T16:21:22.641Z,5.33
2023-03-10T16:23:51.360Z,5.33
2023-03-10T16:26:23.190Z,5.31
2023-03-10T16:28:54.494Z,5.31
2023-03-10T16:31:25.200Z,5.32
2023-03-10T16:33:55.004Z,5.30
2023-03-10T16:36:24.994Z,5.30
2023-03-10T16:38:56.648Z,5.31
2023-03-10T16:41:26.162Z,5.30
2023-03-10T16:43:55.542Z,5.29
2023-03-10T16:46:25.781Z,5.28
2023-03-10T16:48:55.846Z,5.28
2023-03-10T16:51:38.249Z,5.28
2023-03-10T16:54:10.297Z,5.28
2023-03-10T16:56:40.761Z,5.28
2023-03-10T16:59:21.816Z,5.28
2023-03-10T17:01:50.788Z,5.29
2023-03-10T17:04:19.707Z,5.31
2023-03-10T17:06:52.568Z,5.29
2023-03-10T17:09:20.991Z,5.28
2023-03-10T17:11:55.329Z,5.29
2023-03-10T17:14:24.352Z,5.30
2023-03-10T17:16:54.334Z,5.31
2023-03-10T17:19:28.859Z,5.30
2023-03-10T17:21:57.348Z,5.31
2023-03-10T17:24:27.022Z,5.32
2023-03-10T17:26:56.953Z,5.32
2023-03-10T17:29:25.390Z,5.33
2023-03-10T17:31:59.083Z,5.35
2023-03-10T17:34:29.420Z,5.35
2023-03-10T17:36:57.474Z,5.35
2023-03-10T17:39:30.160Z,5.37
2023-03-10T17:42:03.889Z,5.38
2023-03-10T17:44:34.112Z,5.39
2023-03-10T17:47:03.245Z,5.38
2023-03-10T17:49:33.594Z,5.35
2023-03-10T17:52:02.908Z,5.34
2023-03-10T17:54:31.676Z,5.35
2023-03-10T17:57:00.239Z,5.37
2023-03-10T17:59:28.947Z,5.37
2023-03-10T18:01:57.145Z,5.36
2023-03-10T18:04:30.314Z,5.36
2023-03-10T18:07:03.372Z,5.34
2023-03-10T18:09:51.397Z,5.34
2023-03-10T18:12:19.501Z,5.37
2023-03-10T18:14:50.907Z,5.36
2023-03-10T18:17:19.001Z,5.34
2023-03-10T18:19:52.355Z,5.34
2023-03-10T18:22:22.374Z,5.33
2023-03-10T18:24:51.022Z,5.32
2023-03-10T18:30:11.469Z,5.27
2023-03-10T18:32:55.984Z,5.27
2023-03-10T18:35:28.306Z,5.26
2023-03-10T18:38:01.821Z,5.25
2023-03-10T18:40:32.563Z,5.24
2023-03-10T18:43:04.307Z,5.22
2023-03-10T18:45:34.730Z,5.22
2023-03-10T18:48:03.491Z,5.22
2023-03-10T18:50:37.090Z,5.20
2023-03-10T18:53:10.129Z,5.21
2023-03-10T18:55:39.274Z,5.20
2023-03-10T18:58:07.524Z,5.20
2023-03-10T19:00:45.688Z,5.20
2023-03-10T19:03:16.716Z,5.20
2023-03-10T19:05:49.620Z,5.20
2023-03-10T19:08:18.864Z,5.18
2023-03-10T19:11:01.817Z,5.18
2023-03-10T19:13:30.505Z,5.15
2023-03-10T19:15:59.493Z,5.13
2023-03-10T19:18:28.707Z,5.11
2023-03-10T19:21:00.219Z,5.09
2023-03-10T19:23:28.718Z,5.06
2023-03-10T19:25:56.864Z,5.04
2023-03-10T19:28:26.360Z,5.02
2023-03-10T19:30:54.505Z,4.98
2023-03-10T19:33:23.720Z,4.96
2023-03-10T19:36:03.124Z,4.94
2023-03-10T19:38:31.781Z,4.91
2023-03-10T19:41:00.855Z,4.88
2023-03-10T19:43:32.251Z,4.85
2023-03-10T19:46:01.984Z,4.82
2023-03-10T19:48:30.776Z,4.77
2023-03-10T19:50:59.720Z,4.73
2023-03-10T19:53:29.492Z,4.69
2023-03-10T19:55:59.783Z,4.65
2023-03-10T19:58:28.383Z,4.64
2023-03-10T20:01:00.518Z,4.61
2023-03-10T20:03:30.857Z,4.59
2023-03-10T20:05:59.544Z,4.58
2023-03-10T20:08:30.655Z,4.58
2023-03-10T20:11:02.304Z,4.57
2023-03-10T20:13:31.434Z,4.57
2023-03-10T20:16:00.818Z,4.59
2023-03-10T20:18:31.416Z,4.59
2023-03-10T20:21:02.841Z,4.60
2023-03-10T20:23:35.115Z,4.60
2023-03-10T20:26:08.311Z,4.62
2023-03-10T20:28:37.110Z,4.63
2023-03-10T20:31:05.299Z,4.62
2023-03-10T20:33:35.318Z,4.63
2023-03-10T20:36:08.741Z,4.64
2023-03-10T20:38:39.091Z,4.63
2023-03-10T20:41:16.296Z,4.63
2023-03-10T20:43:44.641Z,4.65
2023-03-10T20:46:13.165Z,4.65
2023-03-10T20:48:43.249Z,4.66
2023-03-10T20:51:14.325Z,4.67
2023-03-10T20:53:46.853Z,4.66
2023-03-10T20:56:16.888Z,4.68
2023-03-10T20:58:48.487Z,4.72
2023-03-10T21:01:28.051Z,4.75
2023-03-10T21:03:58.678Z,4.75
2023-03-10T21:06:30.131Z,4.79
2023-03-10T21:09:05.923Z,4.79
2023-03-10T21:11:37.295Z,4.80
2023-03-10T21:14:06.336Z,4.79
2023-03-10T21:16:39.855Z,4.78
2023-03-10T21:19:13.529Z,4.80
2023-03-10T21:21:43.197Z,4.79
2023-03-10T21:24:12.114Z,4.78
2023-03-10T21:26:44.930Z,4.79
2023-03-10T21:29:13.088Z,4.78
2023-03-10T21:31:41.710Z,4.77
2023-03-10T21:34:09.951Z,4.78
2023-03-10T21:36:38.478Z,4.79
2023-03-10T21:39:09.099Z,4.79
2023-03-10T21:41:41.227Z,4.80
2023-03-10T21:44:10.481Z,4.80
2023-03-10T21:46:39.335Z,4.78
2023-03-10T21:49:09.369Z,4.78
2023-03-10T21:51:37.822Z,4.77
2023-03-10T21:54:06.220Z,4.77
2023-03-10T21:56:38.186Z,4.78
2023-03-10T21:59:07.663Z,4.79
2023-03-10T22:01:36.842Z,4.80
2023-03-10T22:04:04.930Z,4.83
2023-03-10T22:06:33.099Z,4.82
2023-03-10T22:09:07.100Z,4.83
2023-03-10T22:11:36.374Z,4.86
2023-03-10T22:14:06.404Z,4.87
2023-03-10T22:16:34.459Z,4.88
2023-03-10T22:19:03.094Z,4.89
2023-03-10T22:21:31.652Z,4.90
2023-03-10T22:24:00.206Z,4.92
2023-03-10T22:26:28.453Z,4.94
2023-03-10T22:28:57.347Z,4.99
2023-03-10T22:31:26.501Z,5.02
2023-03-10T22:33:54.626Z,5.04
2023-03-10T22:36:24.035Z,5.08
2023-03-10T22:38:52.260Z,5.12
2023-03-10T22:41:22.758Z,5.17
2023-03-10T22:43:51.827Z,5.22
2023-03-10T22:46:20.559Z,5.25
2023-03-10T22:48:49.248Z,5.30
2023-03-10T22:51:18.780Z,5.35
2023-03-10T22:53:49.699Z,5.39
2023-03-10T22:56:17.767Z,5.42
2023-03-10T22:58:45.948Z,5.45
2023-03-10T23:01:14.244Z,5.51
2023-03-10T23:03:42.636Z,5.55
2023-03-10T23:06:15.839Z,5.61
2023-03-10T23:08:46.791Z,5.64
2023-03-10T23:11:15.760Z,5.67
2023-03-10T23:13:44.847Z,5.71
2023-03-10T23:16:13.176Z,5.75
2023-03-10T23:18:41.886Z,5.78
2023-03-10T23:21:09.948Z,5.79
2023-03-10T23:23:39.465Z,5.80
2023-03-10T23:26:07.816Z,5.83
2023-03-10T23:28:36.268Z,5.84
2023-03-10T23:31:04.798Z,5.84
2023-03-10T23:33:33.312Z,5.85
2023-03-10T23:36:02.242Z,5.86
2023-03-10T23:38:30.552Z,5.85
2023-03-10T23:40:59.876Z,5.84
2023-03-10T23:43:28.295Z,5.85
2023-03-10T23:45:56.520Z,5.86
2023-03-10T23:48:25.039Z,5.85
2023-03-10T23:50:53.157Z,5.84
2023-03-10T23:53:23.441Z,5.84
2023-03-10T23:55:51.698Z,5.82
2023-03-10T23:58:20.016Z,5.79
